CheckWX is a tool to help pilots better visualize weather data.  It is not intended as a substitute for an official pre-flight weather briefing.

02:53:09 UTC

4I3 METAR
Knox County Airport
Mount Vernon, Ohio, USA
Current

18 mins ago

K4I3 240235Z AUTO 00000KT 10SM CLR 05/M08 A3028 RMK AO2
Observed
Mar-24 @ 02:35 UTC
Visibility
10 SM
Flight Rules
VFR
Cloud Levels
  • Clear skies
Temperature
C / 41°F
Dewpoint
-8°C / 18°F
Humidity
39%
Altimeter
30.28" Hg
Pressure
1025.42 hPa
Previous

38 mins ago

K4I3 240215Z AUTO 00000KT 10SM CLR 04/M08 A3028 RMK AO2
Observed
Mar-24 @ 02:15 UTC
Visibility
10 SM
Flight Rules
VFR
Cloud Levels
  • Clear skies
Temperature
C / 39°F
Dewpoint
-8°C / 18°F
Humidity
42%
Altimeter
30.28" Hg
Pressure
1025.42 hPa
Previous

57 mins ago

K4I3 240156Z AUTO 00000KT 10SM CLR 05/M08 A3028 RMK AO2
Observed
Mar-24 @ 01:56 UTC
Visibility
10 SM
Flight Rules
VFR
Cloud Levels
  • Clear skies
Temperature
C / 41°F
Dewpoint
-8°C / 18°F
Humidity
39%
Altimeter
30.28" Hg
Pressure
1025.42 hPa